Thunder radar more information blitzortung!


Radar de pluja more information rain snow radar


Visita la nostra xarxa de llocs de meteo:

Template documentation
and downloads

And another site



No particular awareness of the weather is required.    There are no Weather-warnings

Pagina Historial Weather Underground text

Diari Resum Octubre 1, 2017 Unitats:  Mètric    Imperial   Tant
« Previous Dia
SegĂźent Dia »
Diari Setmana Mensual Anual Personalitzada
  Maxima: Minima: Media:
Temperatura: -17.8 °C -8.7 °C -7.5 °C
Punt de rosada: -17.8 °C -10.3 °C -9.4 °C
Humitat: Humidity % 74 % 81 %
Wind Speed: 0 km/h 0 km/h 6.6 km/h
RĂ fegues de vent: 0 km/h - -
Vent:- - South
Pression baro: 0 hPa 34567.7 hPa -
Precipitacions: 0 mm    
Historical Graphs
 
 
Dades de taula per Octubre 1, 2017
Temps Temperatura Punt de rosada Pression baro Vent Wind Speed RĂ fegues de vent Humitat Rainfall Rate (Hourly)
-17.8 °C -17.8 °C 0 hPa Calm     Humidity % 0 mm
00:03 -8.4 °C -10.2 °C 34601.5 hPa NNW 3.1 km/h 3.1 km/h 81 % 0 mm
00:08 -8.4 °C -10.3 °C 34601.5 hPa NE 6 km/h   81 % 0 mm
00:13 -8.4 °C -10.3 °C 34601.5 hPa NNE 3.1 km/h 3.1 km/h 81 % 0 mm
00:18 -8.4 °C -10.3 °C 34601.5 hPa ENE 3.1 km/h 3.1 km/h 81 % 0 mm
00:23 -8.5 °C -10.2 °C 34601.5 hPa ENE 6 km/h 6 km/h 82 % 0 mm
00:24 -8.5 °C -10.2 °C 34601.5 hPa NNW 6 km/h 6 km/h 82 % 0 mm
00:29 -8.5 °C -10.2 °C 34601.5 hPa WNW 3.1 km/h 3.1 km/h 82 % 0 mm
03:40 -8.6 °C -9.9 °C 34601.5 hPa Calm     86 % 0 mm
03:50 -8.6 °C -9.9 °C 34601.5 hPa NE 2.6 km/h 2.6 km/h 86 % 0 mm
04:00 -8.5 °C -9.8 °C 34601.5 hPa West 2.6 km/h 2.6 km/h 86 % 0 mm
04:10 -8.4 °C -9.8 °C 34601.5 hPa NNW 2.6 km/h 5.1 km/h 86 % 0 mm
04:20 -8.4 °C -9.8 °C 34601.5 hPa Calm   2.6 km/h 85 % 0 mm
04:30 -8.3 °C -9.8 °C 34601.5 hPa Calm   2.6 km/h 85 % 0 mm
04:40 -8.3 °C -9.7 °C 34601.5 hPa ENE 5.1 km/h 5.1 km/h 85 % 0 mm
04:50 -8.2 °C -9.6 °C 34601.5 hPa Calm   5.1 km/h 85 % 0 mm
05:00 -8.2 °C -9.8 °C 34567.7 hPa ENE 2.6 km/h 5.1 km/h 83 % 0 mm
05:10 -8.1 °C -9.7 °C 34601.5 hPa Calm   5.1 km/h 83 % 0 mm
05:20 -8.1 °C -9.8 °C 34601.5 hPa Calm   5.1 km/h 82 % 0 mm
10:22 -7.8 °C -9.7 °C 34635.4 hPa Calm     81 % 0 mm
10:27 -7.7 °C -9.6 °C 34635.4 hPa ENE 3.7 km/h 3.7 km/h 81 % 0 mm
10:32 -7.7 °C -9.7 °C 34601.5 hPa Calm     80 % 0 mm
10:37 -7.6 °C -9.6 °C 34601.5 hPa Calm     80 % 0 mm
10:42 -7.6 °C -9.5 °C 34601.5 hPa ENE 3.7 km/h   80 % 0 mm
10:47 -7.5 °C -9.6 °C 34601.5 hPa ESE 6 km/h 6 km/h 79 % 0 mm
10:52 -7.5 °C -9.4 °C 34601.5 hPa East 6 km/h 6 km/h 80 % 0 mm
10:57 -7.4 °C -9.5 °C 34601.5 hPa ENE 6 km/h 6 km/h 79 % 0 mm
11:02 -7.4 °C -9.3 °C 34601.5 hPa East 8 km/h 8 km/h 80 % 0 mm
11:07 -7.4 °C -9.3 °C 34601.5 hPa SE 6 km/h 6 km/h 80 % 0 mm
11:12 -7.4 °C -9.3 °C 34601.5 hPa ENE 9 km/h 9 km/h 80 % 0 mm
11:17 -7.4 °C -9.3 °C 34601.5 hPa East 6 km/h 6 km/h 80 % 0 mm
11:22 -7.3 °C -9.3 °C 34601.5 hPa ESE 8 km/h 8 km/h 80 % 0 mm
11:27 -7.4 °C -9.3 °C 34601.5 hPa ESE 10.3 km/h 10.3 km/h 80 % 0 mm
11:32 -7.4 °C -9.3 °C 34601.5 hPa ENE 6.3 km/h 6.3 km/h 80 % 0 mm
11:37 -7.3 °C -9.1 °C 34601.5 hPa ENE 11.9 km/h 11.9 km/h 81 % 0 mm
11:42 -7.2 °C -9.2 °C 34601.5 hPa NNE 7.6 km/h 7.6 km/h 80 % 0 mm
11:47 -7.2 °C -9.2 °C 34635.4 hPa ENE 9.3 km/h 9.3 km/h 80 % 0 mm
11:52 -7.3 °C -9.1 °C 34635.4 hPa ESE 11.9 km/h 11.9 km/h 81 % 0 mm
11:53 -7.2 °C -9.2 °C 34635.4 hPa ESE 12.7 km/h 12.7 km/h 80 % 0 mm
11:58 -7.2 °C -9.1 °C 34635.4 hPa NNE 11.9 km/h 11.9 km/h 80 % 0 mm
12:03 -7.2 °C -9.2 °C 34635.4 hPa ENE 11.9 km/h 11.9 km/h 80 % 0 mm
12:08 -7.3 °C -9 °C 34635.4 hPa ENE 11.9 km/h 11.9 km/h 82 % 0 mm
12:13 -7.2 °C -9.1 °C 34635.4 hPa ESE 16.1 km/h 16.1 km/h 81 % 0 mm
12:18 -7.2 °C -8.9 °C 34635.4 hPa ENE 9.8 km/h 9.8 km/h 82 % 0 mm
12:23 -7.2 °C -9 °C 34635.4 hPa ESE 9.8 km/h 9.8 km/h 81 % 0 mm
12:28 -7.2 °C -9.1 °C 34635.4 hPa ENE 17.9 km/h 17.9 km/h 81 % 0 mm
12:33 -7.3 °C -9.1 °C 34635.4 hPa East 15 km/h 15 km/h 82 % 0 mm
12:38 -7.3 °C -9 °C 34635.4 hPa SE 20.9 km/h 20.9 km/h 82 % 0 mm
12:43 -7.2 °C -9.1 °C 34635.4 hPa ESE 9.8 km/h 9.8 km/h 81 % 0 mm
12:48 -7.2 °C -9.1 °C 34601.5 hPa ESE 17.9 km/h 17.9 km/h 80 % 0 mm
12:53 -7.1 °C -9.1 °C 34601.5 hPa ESE 11.1 km/h 11.1 km/h 80 % 0 mm
12:58 -7 °C -9 °C 34601.5 hPa South 11.9 km/h 11.9 km/h 80 % 0 mm
13:03 -6.8 °C -8.8 °C 34601.5 hPa South 6 km/h 6 km/h 79 % 0 mm
13:08 -6.6 °C -8.8 °C 34601.5 hPa East 9 km/h 9 km/h 78 % 0 mm
13:13 -6.7 °C -8.9 °C 34601.5 hPa SE 11.9 km/h 11.9 km/h 78 % 0 mm
13:18 -6.7 °C -8.8 °C 34601.5 hPa East 12.7 km/h 12.7 km/h 78 % 0 mm
13:23 -6.7 °C -8.9 °C 34601.5 hPa SSE 15 km/h 15 km/h 78 % 0 mm
13:28 -6.7 °C -8.8 °C 34601.5 hPa ENE 15 km/h 15 km/h 78 % 0 mm
13:33 -6.7 °C -9 °C 34601.5 hPa ESE 19.6 km/h 19.6 km/h 77 % 0 mm
13:38 -6.6 °C -8.8 °C 34601.5 hPa ESE 15 km/h 15 km/h 77 % 0 mm
13:43 -6.6 °C -8.9 °C 34601.5 hPa East 20.9 km/h 20.9 km/h 77 % 0 mm
13:48 -6.7 °C -9 °C 34601.5 hPa ESE 15.3 km/h 15.3 km/h 77 % 0 mm
13:53 -6.7 °C -9 °C 34601.5 hPa SSE 17.9 km/h 17.9 km/h 77 % 0 mm
13:58 -6.6 °C -8.8 °C 34601.5 hPa ESE 6 km/h 6 km/h 77 % 0 mm
14:03 -6.4 °C -8.9 °C 34601.5 hPa SE 9.3 km/h 9.3 km/h 76 % 0 mm
14:08 -6.6 °C -9.1 °C 34601.5 hPa ESE 6.3 km/h 6.3 km/h 76 % 0 mm
14:13 -6.6 °C -9.1 °C 34601.5 hPa ESE 6.3 km/h 6.3 km/h 76 % 0 mm
14:18 -6.7 °C -9.1 °C 34601.5 hPa South 9 km/h 9 km/h 76 % 0 mm
14:23 -6.6 °C -8.8 °C 34601.5 hPa WSW 7.6 km/h 7.6 km/h 77 % 0 mm
14:28 -6.6 °C -8.8 °C 34601.5 hPa SW 6.8 km/h 6.8 km/h 78 % 0 mm
14:33 -6.6 °C -8.8 °C 34601.5 hPa WSW 6 km/h 6 km/h 78 % 0 mm
14:38 -6.6 °C -8.8 °C 34601.5 hPa SW 9 km/h 9 km/h 78 % 0 mm
14:43 -6.6 °C -8.8 °C 34601.5 hPa SW 7.6 km/h 7.6 km/h 78 % 0 mm
14:48 -6.6 °C -8.8 °C 34601.5 hPa East 6 km/h 6 km/h 77 % 0 mm
14:53 -6.6 °C -8.8 °C 34601.5 hPa ENE 8.5 km/h 8.5 km/h 77 % 0 mm
14:58 -6.7 °C -9 °C 34601.5 hPa ENE 11.9 km/h 11.9 km/h 77 % 0 mm
15:03 -6.8 °C -9 °C 34635.4 hPa East 11.9 km/h 11.9 km/h 78 % 0 mm
15:08 -6.8 °C -9.1 °C 34635.4 hPa ESE 15 km/h 15 km/h 77 % 0 mm
15:13 -6.8 °C -9.1 °C 34635.4 hPa ESE 18.3 km/h 18.3 km/h 77 % 0 mm
15:18 -6.8 °C -9.1 °C 34601.5 hPa East 15 km/h 15 km/h 77 % 0 mm
15:23 -6.8 °C -9.1 °C 34601.5 hPa ESE 17.9 km/h 17.9 km/h 77 % 0 mm
15:33 -6.7 °C -9.1 °C 34601.5 hPa NE 7.6 km/h 7.6 km/h 77 % 0 mm
15:34 -6.7 °C -9.1 °C 34601.5 hPa ESE 9 km/h 9 km/h 77 % 0 mm
15:39 -6.7 °C -9.1 °C 34601.5 hPa East 15 km/h 15 km/h 77 % 0 mm
15:44 -6.8 °C -9.2 °C 34601.5 hPa ESE 15 km/h 15 km/h 76 % 0 mm
15:49 -6.8 °C -9.2 °C 34601.5 hPa ENE 11.9 km/h 11.9 km/h 76 % 0 mm
15:54 -6.8 °C -9.2 °C 34601.5 hPa ESE 15 km/h 15 km/h 76 % 0 mm
15:59 -6.8 °C -9.2 °C 34601.5 hPa East 9 km/h 9 km/h 76 % 0 mm
16:04 -6.7 °C -9.1 °C 34601.5 hPa SSE 11.9 km/h 11.9 km/h 76 % 0 mm
16:09 -6.7 °C -9.1 °C 34601.5 hPa ESE 11.9 km/h 11.9 km/h 76 % 0 mm
16:14 -6.7 °C -9.1 °C 34601.5 hPa SSE 6 km/h 6 km/h 76 % 0 mm
16:19 -6.7 °C -9.1 °C 34601.5 hPa ESE 3.1 km/h   76 % 0 mm
16:20 -6.6 °C -9.1 °C 34601.5 hPa WSW 3.1 km/h   76 % 0 mm
16:25 -6.6 °C -9.1 °C 34601.5 hPa South 12.2 km/h 12.2 km/h 75 % 0 mm
16:30 -6.6 °C -9.1 °C 34601.5 hPa WSW 9 km/h 9 km/h 75 % 0 mm
16:35 -6.4 °C -8.9 °C 34601.5 hPa SW 3.1 km/h   75 % 0 mm
16:40 -6.3 °C -8.8 °C 34601.5 hPa SE 6 km/h 6 km/h 75 % 0 mm
16:45 -6.3 °C -8.8 °C 34601.5 hPa SW 6.3 km/h 6.3 km/h 75 % 0 mm
16:50 -6.3 °C -9 °C 34601.5 hPa SSE 7.6 km/h 7.6 km/h 74 % 0 mm
16:55 -6.4 °C -9.1 °C 34601.5 hPa SSE 11.9 km/h 11.9 km/h 74 % 0 mm
17:00 -6.4 °C -9.1 °C 34601.5 hPa WSW 7.6 km/h 7.6 km/h 74 % 0 mm
17:05 -6.4 °C -9.1 °C 34601.5 hPa SW 6 km/h   74 % 0 mm
17:10 -6.4 °C -9.1 °C 34601.5 hPa SW 9 km/h 9 km/h 74 % 0 mm
17:15 -6.4 °C -9.1 °C 34601.5 hPa South 8 km/h 8 km/h 74 % 0 mm
17:20 -6.4 °C -9.1 °C 34601.5 hPa ESE 9 km/h 9 km/h 74 % 0 mm
17:25 -6.5 °C -9.2 °C 34601.5 hPa South 4.2 km/h 4.2 km/h 74 % 0 mm
17:30 -6.5 °C -9.2 °C 34601.5 hPa SSE 9 km/h   74 % 0 mm
17:35 -6.4 °C -9.1 °C 34601.5 hPa SW 8 km/h 8 km/h 74 % 0 mm
17:40 -6.6 °C -9.2 °C 34601.5 hPa WSW 9 km/h 9 km/h 74 % 0 mm
17:45 -6.6 °C -9.2 °C 34601.5 hPa SSW 9 km/h   74 % 0 mm
17:50 -6.6 °C -9.3 °C 34601.5 hPa SW 11.9 km/h 11.9 km/h 74 % 0 mm
17:55 -6.7 °C -9.3 °C 34601.5 hPa SW 8.5 km/h 8.5 km/h 74 % 0 mm
18:00 -6.7 °C -9.3 °C 34601.5 hPa SW 11.9 km/h 11.9 km/h 74 % 0 mm
18:05 -6.7 °C -9.2 °C 34601.5 hPa SSW 8 km/h 8 km/h 75 % 0 mm
18:10 -6.7 °C -9.3 °C 34601.5 hPa SW 9 km/h 9 km/h 75 % 0 mm
18:15 -6.7 °C -9.1 °C 34601.5 hPa West 9 km/h 9 km/h 76 % 0 mm
18:20 -6.7 °C -9.1 °C 34601.5 hPa WSW 6 km/h 6 km/h 76 % 0 mm
18:25 -6.8 °C -9.2 °C 34601.5 hPa WSW 6 km/h 6 km/h 76 % 0 mm
18:30 -6.8 °C -9.2 °C 34601.5 hPa SSW 6 km/h 6 km/h 76 % 0 mm
18:35 -6.8 °C -9.3 °C 34601.5 hPa SSW 11.9 km/h 11.9 km/h 76 % 0 mm
18:40 -6.9 °C -9.3 °C 34601.5 hPa SW 9.3 km/h 9.3 km/h 76 % 0 mm
18:50 -7 °C -9.3 °C 34601.5 hPa WNW 9 km/h 9 km/h 77 % 0 mm
18:55 -7.1 °C -9.3 °C 34601.5 hPa SW 9 km/h 9 km/h 77 % 0 mm
19:00 -7.1 °C -9.4 °C 34601.5 hPa SW 10.3 km/h 10.3 km/h 77 % 0 mm
19:05 -7.1 °C -9.4 °C 34601.5 hPa SW 9 km/h 9 km/h 77 % 0 mm
19:10 -7.2 °C -9.5 °C 34601.5 hPa SW 6.3 km/h 6.3 km/h 77 % 0 mm
19:15 -7.2 °C -9.3 °C 34601.5 hPa SW 9 km/h 9 km/h 78 % 0 mm
19:20 -7.2 °C -9.4 °C 34601.5 hPa West 11.9 km/h 11.9 km/h 78 % 0 mm
19:25 -7.2 °C -9.4 °C 34601.5 hPa WSW 9.3 km/h 9.3 km/h 78 % 0 mm
19:30 -7.3 °C -9.3 °C 34601.5 hPa SW 11.9 km/h 11.9 km/h 79 % 0 mm
19:35 -7.3 °C -9.3 °C 34601.5 hPa SW 6.3 km/h 6.3 km/h 79 % 0 mm
19:40 -7.3 °C -9.4 °C 34601.5 hPa WSW 12.2 km/h 12.2 km/h 79 % 0 mm
19:45 -7.3 °C -9.4 °C 34601.5 hPa SW 6 km/h 6 km/h 79 % 0 mm
19:50 -7.4 °C -9.4 °C 34601.5 hPa SW 5.6 km/h 5.6 km/h 79 % 0 mm
19:55 -7.4 °C -9.3 °C 34601.5 hPa WSW 4.2 km/h 4.2 km/h 80 % 0 mm
20:00 -7.4 °C -9.4 °C 34601.5 hPa WSW 4.2 km/h   80 % 0 mm
20:05 -7.5 °C -9.4 °C 34601.5 hPa SSW 6 km/h   80 % 0 mm
20:10 -7.5 °C -9.4 °C 34601.5 hPa SSW 6 km/h 6 km/h 80 % 0 mm
20:15 -7.6 °C -9.5 °C 34601.5 hPa SW 6 km/h 6 km/h 80 % 0 mm
20:16 -7.6 °C -9.5 °C 34601.5 hPa SW 6 km/h 6 km/h 80 % 0 mm
20:20 -8.3 °C -9.3 °C 34669.3 hPa Calm     89 % 0 mm
20:21 -7.6 °C -9.4 °C 34601.5 hPa SSW 6 km/h 6 km/h 81 % 0 mm
20:26 -7.6 °C -9.4 °C 34601.5 hPa SW 6 km/h 6 km/h 81 % 0 mm
20:30 -8.4 °C -9.4 °C 34669.3 hPa Calm     89 % 0 mm
20:31 -7.7 °C -9.5 °C 34601.5 hPa West 3.1 km/h 3.1 km/h 81 % 0 mm
20:36 -7.7 °C -9.5 °C 34601.5 hPa SW 6 km/h 6 km/h 81 % 0 mm
20:40 -8.4 °C -9.4 °C 34669.3 hPa Calm     89 % 0 mm
20:41 -7.7 °C -9.6 °C 34601.5 hPa West 6 km/h 6 km/h 81 % 0 mm
20:46 -7.7 °C -9.4 °C 34601.5 hPa SW 6 km/h 6 km/h 82 % 0 mm
20:50 -8.4 °C -9.4 °C 34669.3 hPa Calm     89 % 0 mm
20:51 -7.8 °C -9.5 °C 34601.5 hPa West 6 km/h 6 km/h 82 % 0 mm
20:56 -7.8 °C -9.6 °C 34601.5 hPa SW 6 km/h 6 km/h 82 % 0 mm
21:00 -8.4 °C -9.3 °C 34669.3 hPa Calm     90 % 0 mm
21:01 -7.9 °C -9.5 °C 34635.4 hPa SW 3.1 km/h 3.1 km/h 83 % 0 mm
21:06 -7.9 °C -9.6 °C 34635.4 hPa WSW 3.7 km/h 3.7 km/h 83 % 0 mm
21:10 -8.4 °C -9.3 °C 34635.4 hPa Calm     90 % 0 mm
21:11 -8 °C -9.6 °C 34635.4 hPa SW 6 km/h 6 km/h 83 % 0 mm
21:16 -8 °C -9.6 °C 34635.4 hPa WSW 3.1 km/h 3.1 km/h 83 % 0 mm
21:20 -8.4 °C -9.3 °C 34635.4 hPa Calm     90 % 0 mm
21:21 -8.1 °C -9.7 °C 34635.4 hPa WSW 6 km/h 6 km/h 83 % 0 mm
21:26 -8.1 °C -9.6 °C 34635.4 hPa WSW 6 km/h 6 km/h 84 % 0 mm
21:30 -8.4 °C -9.3 °C 34669.3 hPa Calm     90 % 0 mm
21:31 -8.1 °C -9.6 °C 34635.4 hPa WSW 6.3 km/h 6.3 km/h 84 % 0 mm
21:36 -8.1 °C -9.6 °C 34635.4 hPa WSW 6 km/h 6 km/h 84 % 0 mm
21:40 -8.4 °C -9.3 °C 34635.4 hPa Calm     90 % 0 mm
21:41 -8.1 °C -9.6 °C 34635.4 hPa West 6 km/h 6 km/h 84 % 0 mm
21:46 -8.1 °C -9.6 °C 34635.4 hPa WSW 5.1 km/h 5.1 km/h 84 % 0 mm
21:50 -8.5 °C -9.4 °C 34635.4 hPa Calm     90 % 0 mm
21:51 -8.1 °C -9.6 °C 34635.4 hPa WSW 6 km/h 6 km/h 84 % 0 mm
21:56 -8.1 °C -9.6 °C 34635.4 hPa WSW 6.8 km/h 6.8 km/h 84 % 0 mm
22:00 -8.5 °C -9.4 °C 34635.4 hPa Calm     90 % 0 mm
22:01 -8.1 °C -9.6 °C 34635.4 hPa WSW 6 km/h 6 km/h 84 % 0 mm
22:06 -8.1 °C -9.6 °C 34635.4 hPa West 6 km/h 6 km/h 85 % 0 mm
22:10 -8.6 °C -9.5 °C 34635.4 hPa Calm     90 % 0 mm
22:11 -8.2 °C -9.6 °C 34635.4 hPa West 5.6 km/h 5.6 km/h 85 % 0 mm
22:16 -8.2 °C -9.6 °C 34635.4 hPa West 6 km/h 6 km/h 85 % 0 mm
22:20 -8.5 °C -9.3 °C 34635.4 hPa Calm     91 % 0 mm
22:21 -8.2 °C -9.6 °C 34635.4 hPa WSW 6 km/h 6 km/h 85 % 0 mm
22:26 -8.2 °C -9.6 °C 34635.4 hPa WSW 4.2 km/h 4.2 km/h 85 % 0 mm
22:30 -8.5 °C -9.3 °C 34635.4 hPa Calm     91 % 0 mm
22:31 -8.2 °C -9.6 °C 34635.4 hPa WSW 6 km/h 6 km/h 85 % 0 mm
22:36 -8.2 °C -9.6 °C 34635.4 hPa SW 3.1 km/h   86 % 0 mm
22:40 -8.4 °C -9.3 °C 34635.4 hPa Calm     91 % 0 mm
22:41 -8.2 °C -9.6 °C 34635.4 hPa West 3.1 km/h   86 % 0 mm
22:46 -8.2 °C -9.6 °C 34635.4 hPa West 6 km/h 6 km/h 86 % 0 mm
22:50 -8.5 °C -9.3 °C 34635.4 hPa Calm   7.7 km/h 91 % 0 mm
22:51 -8.2 °C -9.5 °C 34635.4 hPa West 6 km/h 6 km/h 86 % 0 mm
22:56 -8.2 °C -9.5 °C 34635.4 hPa West 6 km/h 6 km/h 86 % 0 mm
23:00 -8.5 °C -9.3 °C 34635.4 hPa Calm   5.1 km/h 91 % 0 mm
23:01 -8.2 °C -9.5 °C 34635.4 hPa West 3.1 km/h 3.7 km/h 86 % 0 mm
23:06 -8.2 °C -9.4 °C 34635.4 hPa Calm     87 % 0 mm
23:10 -8.6 °C -9.4 °C 34635.4 hPa Calm     91 % 0 mm
23:11 -8.2 °C -9.4 °C 34635.4 hPa Calm     87 % 0 mm
23:16 -8.2 °C -9.4 °C 34669.3 hPa Calm     87 % 0 mm
23:20 -8.7 °C -9.5 °C 34635.4 hPa Calm     91 % 0 mm
23:21 -8.2 °C -9.4 °C 34669.3 hPa Calm     87 % 0 mm
23:26 -8.2 °C -9.4 °C 34669.3 hPa Calm     87 % 0 mm
23:30 -8.7 °C -9.6 °C 34635.4 hPa Calm   2.6 km/h 91 % 0 mm
23:31 -8.2 °C -9.4 °C 34635.4 hPa Calm     87 % 0 mm
23:36 -8.3 °C -9.5 °C 34635.4 hPa Calm     87 % 0 mm
23:40 -8.7 °C -9.4 °C 34635.4 hPa Calm   2.6 km/h 92 % 0 mm
23:41 -8.3 °C -9.5 °C 34635.4 hPa Calm     87 % 0 mm
23:46 -8.3 °C -9.5 °C 34669.3 hPa Calm     87 % 0 mm
23:50 -8.7 °C -9.4 °C 34635.4 hPa Calm   2.6 km/h 92 % 0 mm
23:51 -8.3 °C -9.6 °C 34669.3 hPa Calm     87 % 0 mm
23:56 -8.3 °C -9.6 °C 34669.3 hPa Calm     87 % 0 mm
Meteo Sesrovires
Elogis d' Weather Underground - 1.5 mb

Guio original per  Jim McMurry - jmcmurry@mwt.net Adaptat per a la plantilla per  Wim van der Kuil - Leuven-Template.eu

Trobareu la nostra informacio del temps tambe a:

Weather Underground

AWEKAS